createdAt,value
2022-10-04T00:07:12.235Z,102140.88
2022-10-04T00:17:36.641Z,102121.28
2022-10-04T00:28:17.851Z,102115.22
2022-10-04T00:38:39.291Z,102115.25
2022-10-04T00:49:02.994Z,102114.34
2022-10-04T00:59:43.088Z,102099.91
2022-10-04T01:10:11.187Z,102088.69
2022-10-04T01:20:34.062Z,102079.94
2022-10-04T01:30:55.447Z,102065.00
2022-10-04T01:41:19.218Z,102049.94
2022-10-04T01:51:45.639Z,102051.94
2022-10-04T02:02:10.720Z,102035.09
2022-10-04T02:12:34.800Z,102021.41
2022-10-04T02:22:59.342Z,102012.19
2022-10-04T02:33:20.907Z,102008.72
2022-10-04T02:43:47.284Z,102000.69
2022-10-04T02:54:16.936Z,102002.78
2022-10-04T03:04:39.480Z,102011.59
2022-10-04T03:15:00.869Z,101997.22
2022-10-04T03:25:24.777Z,101965.41
2022-10-04T03:35:48.042Z,101948.69
2022-10-04T03:46:10.025Z,101956.34
2022-10-04T03:56:33.641Z,101962.81
2022-10-04T04:07:03.190Z,101969.28
2022-10-04T04:17:27.730Z,101965.59
2022-10-04T04:27:50.312Z,101960.38
2022-10-04T04:38:21.158Z,101953.47
2022-10-04T04:48:47.461Z,101943.00
2022-10-04T04:59:08.904Z,101934.22
2022-10-04T05:09:39.280Z,101935.47
2022-10-04T05:20:01.686Z,101939.16
2022-10-04T05:30:47.573Z,101927.34
2022-10-04T05:41:42.186Z,101935.38
2022-10-04T05:52:12.544Z,101929.63
2022-10-04T06:02:54.897Z,101934.56
2022-10-04T06:13:22.490Z,101933.66
2022-10-04T06:24:04.127Z,101933.03
2022-10-04T06:34:40.786Z,101935.00
2022-10-04T06:45:18.029Z,101934.66
2022-10-04T06:55:47.092Z,101928.34
2022-10-04T07:06:11.305Z,101937.34
2022-10-04T07:16:32.913Z,101950.34
2022-10-04T07:26:55.028Z,101933.41
2022-10-04T07:37:16.423Z,101926.97
2022-10-04T07:47:37.926Z,101926.81
2022-10-04T07:57:59.255Z,101929.44
2022-10-04T08:08:39.611Z,101936.59
2022-10-04T08:19:12.272Z,101938.34
2022-10-04T08:29:48.495Z,101914.03
2022-10-04T08:40:24.021Z,101897.22
2022-10-04T08:50:48.528Z,101893.69
2022-10-04T09:01:25.374Z,101893.81
2022-10-04T09:12:03.620Z,101901.78
2022-10-04T09:22:43.820Z,101897.91
2022-10-04T09:33:08.257Z,101877.69
2022-10-04T09:43:48.604Z,101871.91
2022-10-04T09:54:10.081Z,101858.22
2022-10-04T10:04:37.739Z,101867.91
2022-10-04T10:15:05.209Z,101863.69
2022-10-04T10:25:41.914Z,101865.13
2022-10-04T10:36:22.017Z,101849.97
2022-10-04T10:47:05.054Z,101861.09
2022-10-04T10:57:43.431Z,101839.63
2022-10-04T11:08:24.387Z,101838.56
2022-10-04T11:19:16.169Z,101823.47
2022-10-04T11:29:45.510Z,101792.84
2022-10-04T11:40:06.845Z,101784.66
2022-10-04T11:50:38.973Z,101788.88
2022-10-04T12:01:19.648Z,101792.16
2022-10-04T12:12:07.850Z,101775.09
2022-10-04T12:22:38.999Z,101767.63
2022-10-04T12:33:03.436Z,101753.94
2022-10-04T12:43:38.397Z,101753.69
2022-10-04T12:54:20.165Z,101733.00
2022-10-04T13:04:47.160Z,101724.88
2022-10-04T13:15:11.578Z,101701.63
2022-10-04T13:25:52.864Z,101706.16
2022-10-04T13:36:26.944Z,101688.16
2022-10-04T13:47:06.482Z,101683.56
2022-10-04T13:57:37.174Z,101683.41
2022-10-04T14:07:59.042Z,101698.41
2022-10-04T14:18:27.512Z,101688.09
2022-10-04T14:29:04.351Z,101659.59
2022-10-04T14:39:28.742Z,101644.44
2022-10-04T14:49:51.705Z,101636.28
2022-10-04T15:00:16.281Z,101635.91
2022-10-04T15:10:45.914Z,101641.38
2022-10-04T15:21:20.307Z,101639.88
2022-10-04T15:31:41.780Z,101638.88
2022-10-04T15:42:13.130Z,101633.09
2022-10-04T15:52:53.419Z,101619.94
2022-10-04T16:03:39.497Z,101624.28
2022-10-04T16:14:20.122Z,101630.63
2022-10-04T16:24:52.595Z,101634.59
2022-10-04T16:35:29.523Z,101622.81
2022-10-04T16:46:09.890Z,101609.19
2022-10-04T16:56:59.299Z,101614.06
2022-10-04T17:08:02.613Z,101620.06
2022-10-04T17:19:12.901Z,101618.88
2022-10-04T17:29:58.435Z,101622.41
2022-10-04T17:40:32.050Z,101613.78
2022-10-04T17:51:29.555Z,101623.91
2022-10-04T18:02:01.323Z,101625.63
2022-10-04T18:12:36.466Z,101601.25
2022-10-04T18:23:02.762Z,101583.63
2022-10-04T18:33:33.413Z,101594.56
2022-10-04T18:43:57.952Z,101641.75
2022-10-04T18:55:04.835Z,101631.47
2022-10-04T19:05:32.299Z,101619.50
2022-10-04T19:16:15.822Z,101610.28
2022-10-04T19:26:40.754Z,101583.63
2022-10-04T19:37:10.708Z,101592.22
2022-10-04T19:47:58.211Z,101633.50
2022-10-04T19:58:29.863Z,101615.84
2022-10-04T20:09:17.417Z,101590.53
2022-10-04T20:19:43.261Z,101543.94
2022-10-04T20:30:16.383Z,101546.25
2022-10-04T20:40:40.819Z,101550.16
2022-10-04T20:51:10.744Z,101556.06
2022-10-04T21:01:36.314Z,101561.13
2022-10-04T21:11:58.915Z,101546.38
2022-10-04T21:22:26.657Z,101551.19
2022-10-04T21:32:48.225Z,101556.53
2022-10-04T21:43:09.750Z,101559.78
2022-10-04T21:53:31.193Z,101545.88
2022-10-04T22:03:52.761Z,101539.16
2022-10-04T22:14:14.252Z,101525.59
2022-10-04T22:24:35.952Z,101530.63
2022-10-04T22:35:02.477Z,101517.88
2022-10-04T22:45:27.152Z,101522.75
2022-10-04T22:55:50.714Z,101513.63
2022-10-04T23:06:15.328Z,101523.13
2022-10-04T23:16:37.237Z,101502.50
2022-10-04T23:26:58.755Z,101501.41
2022-10-04T23:37:22.126Z,101479.16
2022-10-04T23:47:44.425Z,101483.75
2022-10-04T23:58:14.999Z,101469.28
